Terminal Aerodrome Forecast
Issued by NWS

Home | Current Version | Previous Version | Graphics & Text | Print | Product List | Glossary On
Versions: 1 2 3 4 5 6 7 8 9 10 11 12 13 14 15 16 17 18 19 20 21 22 23 24
000
FTUS43 KABR 202047 AAA
TAFPIR
TAF AMD
KPIR 202047Z 2021/2118 05010KT P6SM -RA OVC050
     FM202300 01011KT P6SM VCSH OVC030
     FM210200 35007KT P6SM OVC030
     FM210300 34005KT P6SM OVC045
     FM210900 30007KT P6SM SCT070
     FM211500 31013KT P6SM FEW110=

USA.gov is the U.S. government's official web portal to all federal, state and local government web resources and services.